Time;durP1;ratioP1;P1;durP2;ratioP2;P2;SDS_P1;SDS_P2;PMS_P1;PMS_P2;Temp;Humidity;BMP_temperature;BMP_pressure;BME280_temperature;BME280_humidity;BME280_pressure;Samples;Min_cycle;Max_cycle;Signal;HPM_P1;HPM_P2
2021/03/02 00:00:17;;;;;;;4.93;2.78;;;20.90;45.40;;;;;;5022775;28;20592;-43
2021/03/02 00:02:44;;;;;;;5.22;2.95;;;20.90;45.40;;;;;;5025865;28;20033;-45
2021/03/02 00:05:11;;;;;;;4.70;2.45;;;20.90;45.40;;;;;;5023804;28;20077;-42
2021/03/02 00:07:38;;;;;;;3.92;3.00;;;20.90;45.40;;;;;;5024746;28;20037;-42
2021/03/02 00:10:06;;;;;;;5.68;2.45;;;20.90;45.50;;;;;;5024033;28;20417;-44
2021/03/02 00:12:32;;;;;;;4.85;2.80;;;20.90;45.40;;;;;;5023206;28;20059;-43
2021/03/02 00:14:58;;;;;;;5.97;3.08;;;20.80;45.40;;;;;;5025411;28;20075;-45
2021/03/02 00:17:48;;;;;;;5.15;2.90;;;20.90;45.30;;;;;;5020544;28;20042;-43
2021/03/02 00:20:16;;;;;;;2.75;2.22;;;20.90;46.00;;;;;;5020597;28;20033;-44
2021/03/02 00:23:07;;;;;;;4.80;3.08;;;20.80;45.30;;;;;;5004710;28;20056;-47
2021/03/02 00:25:37;;;;;;;4.40;2.55;;;20.80;45.40;;;;;;5006835;28;20115;-47
2021/03/02 00:28:06;;;;;;;4.40;2.80;;;20.80;45.30;;;;;;5021697;28;20390;-49
2021/03/02 00:30:32;;;;;;;3.97;2.55;;;20.80;45.40;;;;;;5019017;28;20375;-44
2021/03/02 00:33:00;;;;;;;3.70;2.60;;;20.80;45.40;;;;;;5024123;28;20056;-46
2021/03/02 00:35:26;;;;;;;3.47;2.40;;;20.80;45.40;;;;;;5025574;28;20087;-44
2021/03/02 00:37:52;;;;;;;4.85;2.63;;;20.80;45.40;;;;;;5009647;28;20037;-45
2021/03/02 00:40:18;;;;;;;3.17;2.75;;;20.80;45.40;;;;;;5023042;28;20026;-45
2021/03/02 00:42:44;;;;;;;5.10;2.90;;;20.80;45.50;;;;;;5005809;28;20038;-44
2021/03/02 00:45:11;;;;;;;6.35;3.10;;;20.80;45.30;;;;;;5023189;28;20026;-44
2021/03/02 00:47:37;;;;;;;2.78;2.10;;;20.70;45.30;;;;;;5023475;28;20030;-48
2021/03/02 00:50:04;;;;;;;3.65;2.70;;;20.70;45.20;;;;;;5023875;28;20482;-46
2021/03/02 00:52:30;;;;;;;4.25;2.45;;;20.70;45.30;;;;;;5022832;28;20394;-44
2021/03/02 00:54:55;;;;;;;3.55;2.50;;;20.70;45.30;;;;;;5023493;28;20030;-51
2021/03/02 00:57:21;;;;;;;3.13;2.63;;;20.70;45.30;;;;;;5020992;28;20037;-43
2021/03/02 00:59:47;;;;;;;3.38;2.60;;;20.70;45.30;;;;;;5021280;28;20037;-43
2021/03/02 01:02:12;;;;;;;3.92;2.70;;;20.80;45.30;;;;;;5026194;28;20036;-46
2021/03/02 01:04:38;;;;;;;4.88;3.00;;;20.70;45.20;;;;;;5024723;28;20391;-47
2021/03/02 01:07:04;;;;;;;4.15;2.65;;;20.70;45.30;;;;;;5019375;28;21600;-45
2021/03/02 01:09:30;;;;;;;4.07;2.92;;;20.70;45.30;;;;;;5022246;28;20029;-43
2021/03/02 01:11:56;;;;;;;3.50;2.17;;;20.70;45.30;;;;;;5022848;28;20037;-50
2021/03/02 01:14:21;;;;;;;3.60;2.70;;;20.70;45.30;;;;;;5005025;28;20091;-44
2021/03/02 01:16:47;;;;;;;5.45;2.88;;;20.70;45.20;;;;;;5029037;28;20032;-43
2021/03/02 01:19:13;;;;;;;7.35;2.88;;;20.70;45.20;;;;;;5031632;28;20033;-42
2021/03/02 01:21:38;;;;;;;4.43;2.67;;;20.70;45.20;;;;;;5032159;28;20025;-43
2021/03/02 01:24:04;;;;;;;4.43;2.80;;;20.70;45.20;;;;;;5031469;28;20064;-42
2021/03/02 01:26:30;;;;;;;5.38;3.15;;;20.70;45.20;;;;;;5032307;28;20033;-45
2021/03/02 01:28:56;;;;;;;3.47;2.50;;;20.70;45.20;;;;;;5031681;28;20051;-47
2021/03/02 01:31:21;;;;;;;4.13;2.90;;;20.70;45.20;;;;;;5031933;28;20526;-45
2021/03/02 01:33:47;;;;;;;3.67;2.60;;;20.70;45.20;;;;;;5031714;28;20104;-43
2021/03/02 01:36:12;;;;;;;2.88;2.45;;;20.70;45.20;;;;;;5012109;28;20306;-44
2021/03/02 01:38:39;;;;;;;3.35;2.58;;;20.70;45.10;;;;;;5032026;28;20053;-42
2021/03/02 01:41:05;;;;;;;3.85;2.55;;;20.70;45.20;;;;;;5031275;28;20531;-43
2021/03/02 01:43:30;;;;;;;3.53;2.40;;;20.70;45.10;;;;;;5031706;28;20104;-43
2021/03/02 01:45:56;;;;;;;3.78;2.65;;;20.70;45.10;;;;;;5026094;28;20104;-46
2021/03/02 01:48:22;;;;;;;4.38;2.47;;;20.70;45.10;;;;;;5031433;28;20091;-43
2021/03/02 01:50:48;;;;;;;3.17;2.35;;;20.70;45.10;;;;;;5032379;28;20030;-45
2021/03/02 01:53:14;;;;;;;4.22;2.30;;;20.70;45.10;;;;;;5012897;28;20022;-46
2021/03/02 01:55:39;;;;;;;3.67;2.20;;;20.70;45.10;;;;;;5031761;28;20036;-44
2021/03/02 01:58:05;;;;;;;3.45;2.40;;;20.70;45.10;;;;;;5030928;28;20037;-46
2021/03/02 02:00:33;;;;;;;3.58;2.42;;;20.60;45.10;;;;;;5031986;28;20075;-43
2021/03/02 02:03:23;;;;;;;3.10;2.58;;;20.70;45.10;;;;;;5030597;28;20462;-45
2021/03/02 02:05:55;;;;;;;3.83;2.13;;;20.70;45.10;;;;;;5026728;28;20065;-45
2021/03/02 02:08:27;;;;;;;3.97;2.75;;;20.70;45.00;;;;;;5012902;28;20057;-45
2021/03/02 02:11:03;;;;;;;3.17;2.08;;;20.70;45.00;;;;;;5031363;28;20043;-42
2021/03/02 02:13:41;;;;;;;3.47;2.50;;;20.70;45.10;;;;;;5030527;28;20034;-42
2021/03/02 02:16:10;;;;;;;3.30;2.35;;;20.60;45.00;;;;;;5031100;28;20358;-43
2021/03/02 02:18:37;;;;;;;3.35;2.47;;;20.70;45.00;;;;;;5031022;28;20033;-42
2021/03/02 02:21:06;;;;;;;4.28;2.53;;;20.70;45.00;;;;;;5030845;28;20059;-42
2021/03/02 02:23:34;;;;;;;2.92;2.28;;;20.70;45.00;;;;;;5031265;28;20396;-44
2021/03/02 02:26:15;;;;;;;3.30;2.30;;;20.70;45.00;;;;;;5012893;28;20033;-42
2021/03/02 02:28:42;;;;;;;2.33;2.10;;;20.60;45.00;;;;;;5031257;28;20116;-42
2021/03/02 02:31:09;;;;;;;2.20;1.85;;;20.60;45.00;;;;;;5030280;28;20035;-46
2021/03/02 02:33:39;;;;;;;3.08;2.15;;;20.70;45.00;;;;;;5030898;28;20030;-42
2021/03/02 02:36:07;;;;;;;2.75;1.92;;;20.60;44.90;;;;;;5029701;28;20033;-42
2021/03/02 02:38:35;;;;;;;3.58;2.55;;;20.60;44.90;;;;;;5030191;28;20029;-45
2021/03/02 02:41:02;;;;;;;2.90;2.50;;;20.70;45.00;;;;;;5029957;28;20045;-43
2021/03/02 02:43:28;;;;;;;3.22;2.30;;;20.70;45.00;;;;;;5031067;28;20077;-42
2021/03/02 02:45:55;;;;;;;2.50;2.05;;;20.70;44.90;;;;;;5030449;28;20040;-46
2021/03/02 02:48:22;;;;;;;3.42;2.20;;;20.70;45.00;;;;;;5029940;28;20065;-42
2021/03/02 02:50:50;;;;;;;2.88;2.13;;;20.70;44.90;;;;;;5030849;28;20489;-43
2021/03/02 02:53:17;;;;;;;2.67;1.98;;;20.60;44.80;;;;;;5030585;28;20041;-44
2021/03/02 02:55:54;;;;;;;2.47;2.00;;;20.70;44.90;;;;;;5030386;28;20025;-43
2021/03/02 02:58:24;;;;;;;2.50;2.00;;;20.70;44.90;;;;;;5004326;28;20033;-42
2021/03/02 03:00:52;;;;;;;3.47;2.28;;;20.70;44.90;;;;;;5031172;28;20026;-46
2021/03/02 03:03:22;;;;;;;2.95;2.20;;;20.70;45.50;;;;;;5029353;28;20028;-43
2021/03/02 03:05:52;;;;;;;3.35;2.30;;;20.70;44.90;;;;;;5030793;28;20045;-42
2021/03/02 03:08:20;;;;;;;3.88;2.60;;;20.70;44.90;;;;;;5029314;28;20033;-42
2021/03/02 03:10:49;;;;;;;3.55;2.25;;;20.70;44.90;;;;;;5030216;28;20022;-43
2021/03/02 03:13:17;;;;;;;3.63;2.60;;;20.70;44.90;;;;;;5029431;28;20033;-47
2021/03/02 03:15:47;;;;;;;4.78;2.63;;;20.70;44.90;;;;;;5013661;28;20026;-43
2021/03/02 03:18:15;;;;;;;3.15;2.03;;;20.60;44.80;;;;;;5029452;28;20465;-42
2021/03/02 03:20:40;;;;;;;4.00;2.50;;;20.70;44.80;;;;;;5028073;28;20044;-43
2021/03/02 03:23:07;;;;;;;3.33;2.25;;;20.70;44.80;;;;;;5029759;28;20025;-46
2021/03/02 03:25:34;;;;;;;3.15;2.55;;;20.70;44.80;;;;;;5012747;28;20095;-43
2021/03/02 03:28:03;;;;;;;3.40;2.05;;;20.60;44.70;;;;;;5029809;28;20512;-47
2021/03/02 03:30:33;;;;;;;4.20;2.10;;;20.70;44.80;;;;;;5030613;28;20034;-42
2021/03/02 03:33:01;;;;;;;2.92;2.25;;;20.70;44.80;;;;;;5033816;28;20037;-51
2021/03/02 03:35:28;;;;;;;3.47;2.03;;;20.70;44.70;;;;;;5033760;28;20030;-42
2021/03/02 03:37:54;;;;;;;3.45;2.08;;;20.70;44.70;;;;;;5033876;28;20037;-43
2021/03/02 03:40:20;;;;;;;3.22;2.35;;;20.70;44.70;;;;;;5033529;28;20124;-42
2021/03/02 03:42:45;;;;;;;4.70;2.40;;;20.70;44.70;;;;;;5033885;28;20506;-42
2021/03/02 03:45:11;;;;;;;4.00;2.35;;;20.70;44.70;;;;;;5033123;28;20156;-46
2021/03/02 03:47:39;;;;;;;2.90;2.30;;;20.70;44.70;;;;;;5034027;28;20078;-42
2021/03/02 03:50:06;;;;;;;4.22;2.00;;;20.70;44.70;;;;;;5032964;28;20430;-43
2021/03/02 03:52:33;;;;;;;3.42;2.50;;;20.70;44.60;;;;;;5033266;28;20493;-49
2021/03/02 03:55:00;;;;;;;3.15;2.40;;;20.70;44.60;;;;;;5033921;28;20036;-51
2021/03/02 03:57:26;;;;;;;3.05;2.30;;;20.70;44.60;;;;;;5033401;28;20029;-42
2021/03/02 03:59:53;;;;;;;5.28;2.45;;;20.70;44.60;;;;;;5016509;28;20037;-43
2021/03/02 04:02:20;;;;;;;3.35;2.30;;;20.70;44.60;;;;;;5014857;28;20568;-42
2021/03/02 04:04:46;;;;;;;2.40;1.83;;;20.70;44.60;;;;;;5032542;28;20033;-46
2021/03/02 04:07:14;;;;;;;3.83;2.20;;;20.70;44.60;;;;;;5015184;28;20355;-47
2021/03/02 04:09:41;;;;;;;2.97;2.00;;;20.70;44.60;;;;;;5033796;28;20040;-45
2021/03/02 04:12:10;;;;;;;3.65;2.30;;;20.70;44.60;;;;;;5033205;28;20155;-43
2021/03/02 04:14:35;;;;;;;3.67;2.40;;;20.70;44.60;;;;;;5033271;28;20032;-44
2021/03/02 04:17:02;;;;;;;2.75;2.22;;;20.70;44.50;;;;;;5015652;28;20034;-49
2021/03/02 04:19:28;;;;;;;3.50;2.50;;;20.70;44.50;;;;;;5033182;28;20048;-45
2021/03/02 04:21:54;;;;;;;3.55;2.05;;;20.70;44.50;;;;;;5032817;28;20026;-42
2021/03/02 04:24:20;;;;;;;3.80;2.35;;;20.70;44.50;;;;;;5032779;28;20170;-44
2021/03/02 04:26:45;;;;;;;6.20;2.00;;;20.70;44.50;;;;;;5032101;28;21612;-44
2021/03/02 04:29:11;;;;;;;4.13;2.13;;;20.70;44.60;;;;;;5032319;28;20433;-43
2021/03/02 04:31:37;;;;;;;2.78;2.08;;;20.70;44.50;;;;;;5032636;28;20053;-43
2021/03/02 04:34:02;;;;;;;2.70;2.15;;;20.70;44.50;;;;;;5032739;28;20466;-46
2021/03/02 04:36:28;;;;;;;4.88;2.55;;;20.70;44.40;;;;;;5032944;28;20029;-46
2021/03/02 04:38:54;;;;;;;3.38;2.08;;;20.70;44.50;;;;;;5033087;28;20033;-46
2021/03/02 04:41:20;;;;;;;3.20;2.38;;;20.70;44.50;;;;;;5014944;28;20033;-44
2021/03/02 04:43:45;;;;;;;3.22;2.55;;;20.70;44.50;;;;;;5029902;28;20022;-45
2021/03/02 04:46:11;;;;;;;3.38;1.95;;;20.70;44.50;;;;;;5029243;28;20425;-45
2021/03/02 04:48:37;;;;;;;4.78;2.35;;;20.70;44.50;;;;;;5033059;28;20331;-43
2021/03/02 04:51:02;;;;;;;4.40;2.47;;;20.70;44.30;;;;;;5032302;28;20029;-48
2021/03/02 04:53:28;;;;;;;3.13;2.47;;;20.70;44.50;;;;;;5033518;28;20037;-45
2021/03/02 04:55:54;;;;;;;3.25;2.25;;;20.70;44.40;;;;;;5032890;28;20466;-45
2021/03/02 04:58:20;;;;;;;3.85;2.30;;;20.70;44.30;;;;;;5031989;28;20033;-43
2021/03/02 05:00:45;;;;;;;3.05;2.17;;;20.70;44.30;;;;;;5023883;28;20097;-45
2021/03/02 05:03:11;;;;;;;3.85;2.60;;;20.80;44.30;;;;;;5031673;28;20047;-47
2021/03/02 05:05:36;;;;;;;3.55;2.45;;;20.70;44.30;;;;;;5032619;28;20432;-43
2021/03/02 05:08:02;;;;;;;3.97;2.53;;;20.70;44.30;;;;;;5032678;28;20055;-48
2021/03/02 05:10:28;;;;;;;3.30;2.30;;;20.80;44.40;;;;;;5031877;28;20040;-43
2021/03/02 05:12:54;;;;;;;3.65;2.33;;;20.70;44.30;;;;;;5032605;28;20030;-44
2021/03/02 05:15:19;;;;;;;4.03;2.50;;;20.70;44.30;;;;;;5031517;28;20389;-42
2021/03/02 05:17:45;;;;;;;4.05;2.72;;;20.80;44.30;;;;;;5032643;28;20033;-42
2021/03/02 05:20:11;;;;;;;3.33;2.33;;;20.70;44.20;;;;;;5031630;28;20044;-43
2021/03/02 05:22:36;;;;;;;3.92;2.60;;;20.70;44.20;;;;;;5032157;28;20470;-44
2021/03/02 05:25:03;;;;;;;3.72;2.45;;;20.70;44.20;;;;;;5031917;28;20034;-47
2021/03/02 05:27:29;;;;;;;4.13;2.88;;;20.70;44.20;;;;;;5031979;28;20044;-45
2021/03/02 05:29:54;;;;;;;2.90;2.60;;;20.70;44.20;;;;;;5032139;28;20026;-42
2021/03/02 05:32:20;;;;;;;3.95;2.70;;;20.70;44.20;;;;;;5031362;28;20053;-46
2021/03/02 05:34:46;;;;;;;2.70;2.08;;;20.70;44.20;;;;;;5030639;28;20454;-46
2021/03/02 05:37:11;;;;;;;2.45;2.25;;;20.70;44.20;;;;;;5031280;28;20048;-43
2021/03/02 05:39:37;;;;;;;5.40;3.05;;;20.80;44.30;;;;;;5031880;28;20033;-42
2021/03/02 05:42:06;;;;;;;4.30;2.55;;;20.80;44.20;;;;;;5031756;28;20064;-48
2021/03/02 05:44:31;;;;;;;3.58;2.30;;;20.70;44.10;;;;;;5032168;28;20104;-43
2021/03/02 05:46:57;;;;;;;4.30;2.95;;;20.70;44.10;;;;;;5032029;28;20120;-43
2021/03/02 05:49:23;;;;;;;3.22;2.50;;;20.80;44.20;;;;;;5030437;28;20033;-42
2021/03/02 05:51:49;;;;;;;4.18;2.40;;;20.70;44.10;;;;;;5031755;28;20071;-47
2021/03/02 05:54:17;;;;;;;3.22;2.17;;;20.70;44.20;;;;;;5027594;28;20029;-45
2021/03/02 05:56:43;;;;;;;3.20;2.22;;;20.70;44.10;;;;;;5031602;28;20037;-45
2021/03/02 05:59:09;;;;;;;2.85;2.05;;;20.70;44.10;;;;;;5030864;28;20083;-43
2021/03/02 06:01:35;;;;;;;3.50;2.35;;;20.70;44.00;;;;;;5031921;28;20029;-45
2021/03/02 06:04:02;;;;;;;3.50;2.28;;;20.80;44.10;;;;;;5031302;28;20072;-44
2021/03/02 06:06:28;;;;;;;3.35;2.15;;;20.80;44.10;;;;;;5030829;28;20112;-42
2021/03/02 06:08:53;;;;;;;5.32;2.95;;;20.70;44.00;;;;;;5031193;28;20183;-42
2021/03/02 06:11:24;;;;;;;3.85;2.65;;;20.80;44.00;;;;;;5030497;28;20033;-43
2021/03/02 06:13:50;;;;;;;4.38;2.45;;;20.80;44.00;;;;;;5031362;28;20025;-43
2021/03/02 06:16:16;;;;;;;3.88;2.50;;;20.70;44.00;;;;;;5030080;28;20359;-44
2021/03/02 06:18:53;;;;;;;2.97;2.40;;;20.80;44.10;;;;;;5031468;28;20041;-46
2021/03/02 06:21:20;;;;;;;3.72;2.45;;;20.80;44.00;;;;;;5030402;28;20386;-44
2021/03/02 06:23:53;;;;;;;2.75;2.05;;;20.80;44.00;;;;;;5030797;28;20386;-47
2021/03/02 06:26:27;;;;;;;3.08;2.40;;;20.80;44.00;;;;;;5019611;28;20038;-43
2021/03/02 06:28:55;;;;;;;3.72;2.30;;;20.80;44.10;;;;;;5030550;28;20022;-44
2021/03/02 06:31:39;;;;;;;3.70;2.90;;;20.80;44.00;;;;;;5025710;28;20373;-44
2021/03/02 06:34:05;;;;;;;3.10;2.42;;;20.80;44.00;;;;;;5030617;28;20469;-50
2021/03/02 06:36:31;;;;;;;3.50;2.70;;;20.80;43.90;;;;;;5030886;28;20037;-42
2021/03/02 06:38:57;;;;;;;3.63;2.30;;;20.80;43.90;;;;;;5024565;28;20040;-43
2021/03/02 06:41:22;;;;;;;3.35;2.70;;;20.80;43.90;;;;;;5027746;28;20029;-43
2021/03/02 06:43:48;;;;;;;4.95;2.85;;;20.80;43.90;;;;;;5027288;28;20029;-42
2021/03/02 06:46:14;;;;;;;14.50;3.38;;;20.70;44.10;;;;;;5022797;28;20037;-44
2021/03/02 06:48:49;;;;;;;6.65;2.50;;;20.80;44.10;;;;;;5030919;28;20472;-42
2021/03/02 06:51:25;;;;;;;10.27;2.58;;;20.80;44.20;;;;;;5030630;28;20049;-41
2021/03/02 06:54:04;;;;;;;4.72;2.53;;;20.80;44.10;;;;;;5031164;28;20104;-41
2021/03/02 06:56:30;;;;;;;7.75;3.03;;;20.80;44.10;;;;;;5030007;28;20041;-42
2021/03/02 06:59:19;;;;;;;9.52;2.97;;;20.80;44.10;;;;;;5030968;28;20029;-42
2021/03/02 07:01:47;;;;;;;9.93;2.88;;;20.80;44.30;;;;;;5017652;28;20490;-41
2021/03/02 07:04:22;;;;;;;9.73;2.70;;;20.80;44.30;;;;;;5029803;28;20033;-42
2021/03/02 07:06:55;;;;;;;10.77;3.28;;;20.80;44.60;;;;;;5033780;28;20374;-42
2021/03/02 07:09:22;;;;;;;11.05;2.80;;;20.90;44.60;;;;;;5033783;28;20033;-44
2021/03/02 07:11:48;;;;;;;9.95;3.33;;;20.90;45.10;;;;;;5035032;28;20030;-45
2021/03/02 07:14:15;;;;;;;10.82;3.20;;;20.90;45.10;;;;;;5034158;28;20025;-42
2021/03/02 07:16:46;;;;;;;8.45;2.67;;;20.90;45.40;;;;;;5035210;28;20068;-42
2021/03/02 07:19:16;;;;;;;13.80;3.20;;;20.90;45.80;;;;;;5034198;28;20049;-43
2021/03/02 07:21:44;;;;;;;11.20;3.22;;;21.00;45.90;;;;;;5034899;28;20100;-44
2021/03/02 07:24:12;;;;;;;10.18;2.70;;;20.90;46.00;;;;;;5032583;28;20490;-51
2021/03/02 07:26:43;;;;;;;11.43;3.08;;;20.90;46.10;;;;;;5028552;28;20030;-42
2021/03/02 07:29:09;;;;;;;6.57;2.70;;;20.90;46.10;;;;;;5028542;28;20462;-45
2021/03/02 07:31:37;;;;;;;10.65;3.05;;;20.90;46.10;;;;;;5031831;28;20069;-42
2021/03/02 07:34:05;;;;;;;7.18;3.08;;;20.90;46.00;;;;;;5033895;28;20045;-45
2021/03/02 07:36:49;;;;;;;7.15;2.95;;;20.90;46.00;;;;;;5033257;28;20037;-44
2021/03/02 07:39:27;;;;;;;13.52;3.35;;;20.90;45.90;;;;;;5033368;28;20481;-45
2021/03/02 07:41:53;;;;;;;7.80;3.50;;;20.80;45.80;;;;;;5026979;28;20078;-47
2021/03/02 07:44:19;;;;;;;6.30;2.60;;;20.80;46.10;;;;;;5033755;28;20120;-42
2021/03/02 07:46:53;;;;;;;10.18;2.88;;;20.80;45.80;;;;;;5029083;28;20112;-43
2021/03/02 07:49:24;;;;;;;9.25;2.45;;;20.80;45.60;;;;;;5033507;28;20117;-49
2021/03/02 07:52:03;;;;;;;6.95;2.85;;;20.80;45.60;;;;;;5034602;28;20033;-42
2021/03/02 07:54:33;;;;;;;5.97;2.70;;;20.80;45.60;;;;;;5025599;28;20022;-42
2021/03/02 07:57:15;;;;;;;6.60;3.08;;;20.80;45.50;;;;;;5034224;28;20044;-42
2021/03/02 07:59:41;;;;;;;9.05;2.92;;;20.80;45.50;;;;;;5034581;28;20029;-42
2021/03/02 08:02:18;;;;;;;6.50;3.13;;;20.80;45.50;;;;;;5033955;28;20431;-49
2021/03/02 08:04:51;;;;;;;6.32;3.03;;;20.80;45.50;;;;;;5033905;28;20540;-41
2021/03/02 08:07:27;;;;;;;7.95;2.78;;;20.80;45.30;;;;;;5033057;28;20099;-42
2021/03/02 08:09:55;;;;;;;6.50;2.70;;;20.80;45.40;;;;;;5033862;28;20021;-46
2021/03/02 08:12:36;;;;;;;6.45;3.47;;;20.80;45.40;;;;;;5033033;28;20037;-42
2021/03/02 08:15:22;;;;;;;4.53;2.78;;;20.80;45.30;;;;;;5033731;28;20044;-42
2021/03/02 08:17:48;;;;;;;9.43;3.30;;;20.80;45.30;;;;;;4992825;28;20478;-44
2021/03/02 08:20:14;;;;;;;6.43;2.65;;;20.80;45.30;;;;;;5033138;28;20030;-41
2021/03/02 08:22:42;;;;;;;6.00;2.85;;;20.80;45.20;;;;;;5033693;28;20025;-41
2021/03/02 08:25:11;;;;;;;6.97;3.15;;;20.80;45.20;;;;;;5032826;28;20075;-46
2021/03/02 08:27:52;;;;;;;5.63;2.95;;;20.80;45.10;;;;;;5032221;28;20033;-44
2021/03/02 08:30:23;;;;;;;6.38;3.03;;;20.80;45.10;;;;;;5032622;28;20029;-45
2021/03/02 08:32:49;;;;;;;4.13;2.90;;;20.80;45.10;;;;;;5032664;28;20099;-42
2021/03/02 08:35:41;;;;;;;7.20;2.92;;;20.80;45.00;;;;;;5032883;28;20064;-44
2021/03/02 08:38:09;;;;;;;11.18;3.10;;;20.80;45.00;;;;;;5030240;28;20042;-41
2021/03/02 08:40:34;;;;;;;6.72;2.88;;;20.80;45.00;;;;;;5032658;28;20034;-47
2021/03/02 08:43:20;;;;;;;6.13;2.95;;;20.80;44.90;;;;;;5033332;28;20531;-44
2021/03/02 08:45:53;;;;;;;4.80;2.95;;;20.80;44.90;;;;;;5032562;28;20036;-46
2021/03/02 08:48:21;;;;;;;6.75;3.38;;;20.80;45.10;;;;;;5032492;28;20514;-48
2021/03/02 08:50:50;;;;;;;4.43;2.80;;;20.80;45.10;;;;;;5033316;28;20048;-45
2021/03/02 08:53:35;;;;;;;4.75;3.20;;;20.80;45.10;;;;;;5032241;28;20033;-43
2021/03/02 08:56:07;;;;;;;5.78;3.30;;;20.80;45.00;;;;;;5032425;28;20029;-43
2021/03/02 08:58:34;;;;;;;4.63;3.05;;;20.80;45.10;;;;;;5030776;28;20036;-45
2021/03/02 09:01:15;;;;;;;5.13;2.97;;;20.80;45.00;;;;;;5032638;28;20044;-43
2021/03/02 09:03:44;;;;;;;6.63;3.22;;;20.80;45.00;;;;;;5032836;28;20040;-44
2021/03/02 09:06:16;;;;;;;5.40;3.15;;;20.80;44.90;;;;;;5032586;28;20033;-46
2021/03/02 09:08:58;;;;;;;4.50;2.80;;;20.80;44.90;;;;;;5032812;28;20036;-44
2021/03/02 09:11:34;;;;;;;4.45;2.75;;;20.80;44.90;;;;;;5014201;28;20041;-45
2021/03/02 09:14:04;;;;;;;4.60;3.30;;;20.80;44.90;;;;;;5032518;28;20104;-44
2021/03/02 09:16:39;;;;;;;4.03;2.92;;;20.80;44.90;;;;;;5014013;28;20496;-44
2021/03/02 09:19:10;;;;;;;5.10;2.90;;;20.80;44.90;;;;;;5032572;28;20044;-47
2021/03/02 09:21:39;;;;;;;3.78;2.92;;;20.80;44.80;;;;;;5014486;28;20029;-44
2021/03/02 09:24:06;;;;;;;6.18;3.35;;;20.90;44.80;;;;;;5014605;28;20117;-45
2021/03/02 09:26:31;;;;;;;5.22;3.10;;;20.80;44.80;;;;;;5031600;28;20108;-43
2021/03/02 09:29:03;;;;;;;6.50;2.90;;;20.80;44.80;;;;;;5031939;28;20057;-43
2021/03/02 09:31:30;;;;;;;4.53;2.60;;;20.80;44.70;;;;;;5030828;28;20049;-43
2021/03/02 09:33:57;;;;;;;4.78;3.15;;;20.80;44.80;;;;;;5032501;28;20421;-43
2021/03/02 09:36:25;;;;;;;5.53;2.90;;;20.80;44.70;;;;;;5013372;28;20053;-43
2021/03/02 09:38:52;;;;;;;4.53;3.10;;;20.80;44.70;;;;;;5032188;28;20164;-43
2021/03/02 09:41:41;;;;;;;4.20;2.80;;;20.80;44.60;;;;;;5031378;28;20053;-44
2021/03/02 09:44:24;;;;;;;4.55;2.90;;;20.80;44.70;;;;;;5032508;28;20037;-43
2021/03/02 09:46:52;;;;;;;9.93;3.05;;;20.80;44.70;;;;;;5010479;28;20095;-45
2021/03/02 09:49:44;;;;;;;4.30;2.88;;;20.80;44.60;;;;;;5024621;28;20497;-43
2021/03/02 09:52:46;;;;;;;5.55;3.00;;;20.80;44.70;;;;;;5029994;28;20025;-43
2021/03/02 09:55:32;;;;;;;4.63;2.80;;;20.80;44.60;;;;;;5014317;28;20029;-49
2021/03/02 09:58:11;;;;;;;3.15;2.42;;;20.80;44.70;;;;;;5031073;28;20462;-43
2021/03/02 10:00:46;;;;;;;5.97;2.90;;;20.90;44.80;;;;;;5010515;28;20124;-44
2021/03/02 10:03:25;;;;;;;3.67;2.97;;;20.90;44.70;;;;;;5025327;28;20026;-46
2021/03/02 10:05:59;;;;;;;4.63;2.97;;;20.80;44.70;;;;;;5030415;28;20084;-43
2021/03/02 10:08:47;;;;;;;3.67;2.88;;;20.80;44.70;;;;;;5029579;28;20454;-43
2021/03/02 10:11:12;;;;;;;3.83;2.60;;;20.90;44.80;;;;;;5030157;28;20045;-45
2021/03/02 10:13:45;;;;;;;3.55;2.90;;;20.90;44.80;;;;;;5030725;28;20021;-46
2021/03/02 10:16:21;;;;;;;4.47;2.88;;;20.80;44.70;;;;;;5015049;28;20108;-46
2021/03/02 10:18:47;;;;;;;4.18;3.03;;;20.80;44.70;;;;;;5030959;28;20386;-46
2021/03/02 10:21:13;;;;;;;2.88;2.17;;;20.90;44.80;;;;;;5030853;28;20029;-48
2021/03/02 10:23:44;;;;;;;4.57;2.58;;;20.90;44.80;;;;;;5030957;28;20104;-44
2021/03/02 10:26:11;;;;;;;4.60;2.90;;;20.90;44.80;;;;;;5031396;28;20294;-43
2021/03/02 10:28:37;;;;;;;3.92;2.50;;;20.80;44.70;;;;;;5029252;28;20263;-44
2021/03/02 10:31:03;;;;;;;4.05;2.60;;;20.80;44.70;;;;;;5031488;28;20036;-43
2021/03/02 10:33:30;;;;;;;4.03;2.70;;;20.90;44.70;;;;;;5030000;28;20037;-44
2021/03/02 10:35:57;;;;;;;3.63;3.03;;;20.90;44.80;;;;;;5030959;28;20032;-46
2021/03/02 10:38:22;;;;;;;3.75;2.75;;;20.90;44.80;;;;;;5030330;28;20041;-45
2021/03/02 10:40:48;;;;;;;15.50;3.05;;;20.90;45.10;;;;;;5013659;28;20025;-47
2021/03/02 10:43:14;;;;;;;10.77;3.20;;;20.90;45.20;;;;;;5030185;28;20029;-43
2021/03/02 10:45:40;;;;;;;10.20;3.08;;;20.90;45.30;;;;;;5029592;28;20033;-46
2021/03/02 10:48:06;;;;;;;11.63;3.00;;;20.90;45.30;;;;;;5031601;28;20052;-44
2021/03/02 10:50:32;;;;;;;13.20;3.00;;;20.90;45.50;;;;;;5029881;28;20029;-47
2021/03/02 10:52:57;;;;;;;8.18;2.63;;;20.90;45.80;;;;;;5031436;28;20104;-42
2021/03/02 10:55:24;;;;;;;6.72;3.17;;;20.90;45.80;;;;;;5030294;28;20117;-42
2021/03/02 10:57:49;;;;;;;10.75;3.13;;;20.90;46.10;;;;;;5031185;28;20030;-42
2021/03/02 11:00:17;;;;;;;11.07;3.63;;;20.90;46.00;;;;;;5030451;28;20088;-48
2021/03/02 11:02:43;;;;;;;4.68;2.65;;;20.90;45.80;;;;;;5008075;28;20025;-43
2021/03/02 11:05:10;;;;;;;7.82;3.03;;;20.90;46.30;;;;;;5031617;28;20033;-46
2021/03/02 11:07:36;;;;;;;7.03;3.50;;;20.90;46.30;;;;;;5030749;28;20029;-43
2021/03/02 11:10:02;;;;;;;6.20;2.92;;;20.90;46.20;;;;;;5030375;28;20041;-45
2021/03/02 11:12:28;;;;;;;5.13;2.63;;;20.90;46.30;;;;;;5030009;28;20355;-42
2021/03/02 11:14:54;;;;;;;4.97;3.15;;;20.90;46.20;;;;;;5030907;28;20033;-44
2021/03/02 11:17:19;;;;;;;6.32;2.50;;;20.90;46.20;;;;;;5030016;28;20561;-47
2021/03/02 11:19:45;;;;;;;6.78;2.75;;;20.90;46.20;;;;;;5031063;28;20029;-44
2021/03/02 11:22:10;;;;;;;6.00;2.88;;;20.90;46.20;;;;;;5030395;28;20021;-43
2021/03/02 11:24:36;;;;;;;7.10;2.67;;;20.90;46.20;;;;;;5029463;28;20047;-42
2021/03/02 11:27:02;;;;;;;5.50;2.92;;;20.90;46.10;;;;;;5030841;28;20033;-42
2021/03/02 11:29:27;;;;;;;6.20;2.58;;;20.90;46.10;;;;;;5029715;28;20444;-45
2021/03/02 11:31:53;;;;;;;5.40;2.78;;;20.90;46.10;;;;;;5030468;28;20152;-43
2021/03/02 11:34:18;;;;;;;3.85;2.47;;;20.90;46.00;;;;;;5029659;28;20105;-48
2021/03/02 11:36:44;;;;;;;4.82;2.83;;;20.90;46.00;;;;;;5030109;28;20108;-42
2021/03/02 11:39:10;;;;;;;4.32;2.60;;;20.90;46.00;;;;;;5030040;28;20030;-44
2021/03/02 11:41:35;;;;;;;3.95;2.70;;;20.90;46.00;;;;;;5029734;28;20032;-43
2021/03/02 11:44:01;;;;;;;6.72;2.50;;;20.90;46.00;;;;;;5030489;28;20021;-42
2021/03/02 11:46:27;;;;;;;7.35;3.08;;;20.90;46.00;;;;;;5029999;28;20029;-45
2021/03/02 11:48:52;;;;;;;4.05;2.83;;;20.90;46.00;;;;;;5030566;28;20053;-43
2021/03/02 11:51:18;;;;;;;6.28;2.95;;;20.90;46.00;;;;;;5030203;28;20504;-47
2021/03/02 11:53:44;;;;;;;4.50;2.90;;;20.90;46.00;;;;;;5015877;28;20076;-43
2021/03/02 11:56:09;;;;;;;5.07;2.67;;;20.90;45.90;;;;;;5033912;28;20429;-42
2021/03/02 11:58:35;;;;;;;6.03;2.83;;;20.90;45.90;;;;;;5032877;28;20076;-47
2021/03/02 12:01:01;;;;;;;3.83;2.55;;;20.90;46.00;;;;;;5032724;28;20048;-43
2021/03/02 12:03:26;;;;;;;4.43;2.50;;;20.90;45.90;;;;;;5013975;28;20474;-46
2021/03/02 12:05:53;;;;;;;5.10;2.45;;;20.90;45.90;;;;;;5030389;28;20033;-43
2021/03/02 12:08:20;;;;;;;4.30;2.25;;;20.90;45.90;;;;;;5032291;28;20411;-48
2021/03/02 12:10:45;;;;;;;3.55;2.30;;;20.90;45.90;;;;;;5031279;28;20466;-46
2021/03/02 12:13:11;;;;;;;4.90;2.75;;;20.90;45.80;;;;;;5032641;28;20092;-43
2021/03/02 12:15:37;;;;;;;3.65;2.70;;;20.90;45.80;;;;;;5032773;28;20041;-43
2021/03/02 12:18:03;;;;;;;3.47;2.35;;;20.90;45.80;;;;;;5033365;28;20040;-44
2021/03/02 12:20:28;;;;;;;4.00;2.22;;;20.90;45.80;;;;;;5032195;28;20175;-43
2021/03/02 12:22:54;;;;;;;5.15;2.38;;;20.90;45.80;;;;;;5033929;28;20093;-43
2021/03/02 12:25:20;;;;;;;4.85;2.80;;;20.90;45.80;;;;;;5033105;28;20025;-47
2021/03/02 12:27:45;;;;;;;3.60;2.60;;;20.90;45.80;;;;;;5033437;28;20029;-44
2021/03/02 12:30:12;;;;;;;3.92;2.70;;;20.90;45.80;;;;;;5033095;28;20519;-50
2021/03/02 12:32:38;;;;;;;4.55;2.80;;;20.90;45.70;;;;;;5032244;28;20053;-43
2021/03/02 12:35:05;;;;;;;3.45;2.70;;;20.90;45.80;;;;;;5015606;28;20033;-42
2021/03/02 12:37:31;;;;;;;3.20;2.60;;;20.90;45.70;;;;;;5032006;28;20041;-48
2021/03/02 12:39:56;;;;;;;4.88;2.45;;;20.90;45.70;;;;;;5033332;28;20025;-43
2021/03/02 12:42:22;;;;;;;3.90;2.53;;;20.90;45.70;;;;;;5031871;28;20394;-48
2021/03/02 12:44:48;;;;;;;4.07;2.67;;;21.00;45.80;;;;;;5029705;28;20025;-44
2021/03/02 12:47:14;;;;;;;4.53;3.13;;;20.90;45.70;;;;;;5029939;28;20030;-44
2021/03/02 12:49:40;;;;;;;3.88;2.15;;;20.90;45.60;;;;;;5028311;28;20031;-43
2021/03/02 12:52:07;;;;;;;3.90;2.35;;;20.90;45.70;;;;;;5033076;28;20112;-43